METAR Formatted Surface Weather Observation
Issued by NWS

Home | Current Version | Previous Version | Text Only | Print | Product List | Glossary On
Versions: 1 2 3 4 5 6
000
SAUS46 KLOX 281305
MTRNZY
METAR KNZY 281252Z 28010KT 10SM FEW010 SCT025 BKN040 12/08 A2997 RMK
AO2 SLP148 T01220078 $



USA.gov is the U.S. government's official web portal to all federal, state and local government web resources and services.